Chelan Falls, Washington
Current Conditions -  °F | °C
As of 2:55 PM on Saturday 25 Oct 2014 (Local Time) from KEAT Reporting Station
Overcast Overcast  
Wind Chill: 56°   Ceiling: 8500
Heat Index: 56°   Visibility: 10mi
Dew Point: 45°   Wind: 0mph
Humidity: 67%   Direction: NA
Pressure: 29.5"   Gusts: NA
Location:  47.8°N, 119.99°W
Report Text: KEAT 252155Z AUTO 00000KT 10SM FEW025 OVC085 13/07 A2950 RMK AO2 SLP991 T01330072
Loading
Personal Weather Stations






























Interactive Weather Map
Tropical Storm Tracking
New forecast layout! Learn more

10-Day Weather Forecast

Advertisements
Track Severe Weather on mobile